RYR3H EICK-EGCC
Flight info
| Callsign | RYR3H |
|---|---|
| Flight time | 0h 49m |
| Altitude | 35000 |
| Route | TISMO1S TISMO DCT BOFUM Q37 MALUD |
| Aircraft | B738/M-SDE2E3FGHIRWXY/LB1 |
Departure
| Time | 2026-05-06 18:25 |
|---|---|
| Airport | Cork International Airport (EICK) |
Arrival
| Time | 2026-05-06 19:15 |
|---|---|
| Airport | Manchester Airport (EGCC) |
| Time | Latitude | Longitude | Altitude | Speed | Heading |
|---|---|---|---|---|---|
| 2026-05-06 18:02 | 51.84844 | -8.49056 | 503 ft | 0 kts | 69° |
| 2026-05-06 18:18 | 51.84836 | -8.49089 | 503 ft | 4 kts | 70° |
| 2026-05-06 18:18 | 51.84827 | -8.49130 | 503 ft | 4 kts | 70° |
| 2026-05-06 18:18 | 51.84816 | -8.49170 | 503 ft | 4 kts | 56° |
| 2026-05-06 18:18 | 51.84799 | -8.49200 | 503 ft | 4 kts | 25° |
| 2026-05-06 18:19 | 51.84781 | -8.49206 | 503 ft | 1 kts | 348° |
| 2026-05-06 18:19 | 51.84777 | -8.49205 | 503 ft | 0 kts | 348° |
| 2026-05-06 18:21 | 51.84778 | -8.49205 | 503 ft | 1 kts | 348° |
| 2026-05-06 18:21 | 51.84795 | -8.49211 | 503 ft | 5 kts | 348° |
| 2026-05-06 18:21 | 51.84842 | -8.49227 | 503 ft | 9 kts | 348° |
| 2026-05-06 18:22 | 51.84909 | -8.49261 | 503 ft | 11 kts | 342° |
| 2026-05-06 18:22 | 51.84981 | -8.49295 | 503 ft | 11 kts | 341° |
| 2026-05-06 18:22 | 51.85050 | -8.49333 | 503 ft | 10 kts | 341° |
| 2026-05-06 18:22 | 51.85106 | -8.49365 | 503 ft | 8 kts | 340° |
| 2026-05-06 18:23 | 51.85143 | -8.49429 | 503 ft | 8 kts | 277° |
| 2026-05-06 18:23 | 51.85114 | -8.49499 | 503 ft | 8 kts | 213° |
| 2026-05-06 18:23 | 51.85065 | -8.49538 | 503 ft | 8 kts | 205° |
| 2026-05-06 18:23 | 51.85018 | -8.49574 | 503 ft | 7 kts | 205° |
| 2026-05-06 18:24 | 51.84971 | -8.49602 | 503 ft | 7 kts | 184° |
| 2026-05-06 18:24 | 51.84923 | -8.49581 | 503 ft | 10 kts | 159° |
| 2026-05-06 18:24 | 51.84727 | -8.49468 | 503 ft | 63 kts | 160° |
| 2026-05-06 18:24 | 51.84073 | -8.49080 | 503 ft | 134 kts | 160° |
| 2026-05-06 18:25 | 51.83064 | -8.48516 | 900 ft | 160 kts | 164° |
| 2026-05-06 18:25 | 51.82009 | -8.47974 | 1865 ft | 161 kts | 162° |
| 2026-05-06 18:25 | 51.80921 | -8.47422 | 2648 ft | 170 kts | 165° |
| 2026-05-06 18:25 | 51.79868 | -8.46592 | 3537 ft | 178 kts | 136° |
| 2026-05-06 18:26 | 51.79322 | -8.44595 | 3837 ft | 217 kts | 94° |
| 2026-05-06 18:26 | 51.79734 | -8.42135 | 4129 ft | 242 kts | 54° |
| 2026-05-06 18:26 | 51.81044 | -8.40387 | 4747 ft | 254 kts | 31° |
| 2026-05-06 18:26 | 51.82609 | -8.38806 | 5353 ft | 270 kts | 32° |
| 2026-05-06 18:27 | 51.84196 | -8.37130 | 6295 ft | 276 kts | 33° |
| 2026-05-06 18:27 | 51.85778 | -8.35389 | 7180 ft | 280 kts | 34° |
| 2026-05-06 18:27 | 51.87373 | -8.33568 | 8143 ft | 283 kts | 35° |
| 2026-05-06 18:27 | 51.88979 | -8.31685 | 9053 ft | 287 kts | 35° |
| 2026-05-06 18:28 | 51.90598 | -8.29748 | 9960 ft | 291 kts | 36° |
| 2026-05-06 18:28 | 51.92247 | -8.27742 | 10593 ft | 305 kts | 36° |
| 2026-05-06 18:28 | 51.94020 | -8.25568 | 10797 ft | 333 kts | 36° |
| 2026-05-06 18:28 | 51.95935 | -8.23208 | 11072 ft | 356 kts | 37° |
| 2026-05-06 18:29 | 51.97937 | -8.20728 | 11636 ft | 367 kts | 36° |
| 2026-05-06 18:29 | 51.99969 | -8.18203 | 12501 ft | 370 kts | 37° |
| 2026-05-06 18:29 | 52.02021 | -8.15648 | 13272 ft | 376 kts | 36° |
| 2026-05-06 18:29 | 52.04085 | -8.13076 | 13989 ft | 381 kts | 37° |
| 2026-05-06 18:30 | 52.06189 | -8.10449 | 14752 ft | 383 kts | 36° |
| 2026-05-06 18:30 | 52.08316 | -8.07793 | 15461 ft | 387 kts | 37° |
| 2026-05-06 18:30 | 52.10461 | -8.05112 | 16199 ft | 391 kts | 36° |
| 2026-05-06 18:30 | 52.12630 | -8.02396 | 16885 ft | 395 kts | 36° |
| 2026-05-06 18:31 | 52.14751 | -7.99541 | 17596 ft | 399 kts | 41° |
| 2026-05-06 18:31 | 52.16736 | -7.96331 | 18270 ft | 404 kts | 45° |
| 2026-05-06 18:31 | 52.18635 | -7.93016 | 18885 ft | 407 kts | 46° |
| 2026-05-06 18:31 | 52.20553 | -7.89596 | 19506 ft | 410 kts | 46° |
| 2026-05-06 18:32 | 52.22478 | -7.86170 | 20153 ft | 411 kts | 45° |
| 2026-05-06 18:32 | 52.24440 | -7.82740 | 20747 ft | 414 kts | 46° |
| 2026-05-06 18:32 | 52.26410 | -7.79301 | 21354 ft | 417 kts | 45° |
| 2026-05-06 18:32 | 52.28405 | -7.75845 | 21957 ft | 419 kts | 45° |
| 2026-05-06 18:33 | 52.30409 | -7.72376 | 22586 ft | 420 kts | 45° |
| 2026-05-06 18:33 | 52.32413 | -7.68898 | 23171 ft | 422 kts | 46° |
| 2026-05-06 18:33 | 52.34433 | -7.65375 | 23710 ft | 425 kts | 45° |
| 2026-05-06 18:33 | 52.36439 | -7.61890 | 24151 ft | 427 kts | 45° |
| 2026-05-06 18:34 | 52.38482 | -7.58356 | 24601 ft | 429 kts | 45° |
| 2026-05-06 18:34 | 52.40548 | -7.54802 | 25048 ft | 431 kts | 45° |
| 2026-05-06 18:34 | 52.42614 | -7.51226 | 25471 ft | 434 kts | 45° |
| 2026-05-06 18:34 | 52.44689 | -7.47614 | 25886 ft | 436 kts | 45° |
| 2026-05-06 18:35 | 52.46769 | -7.43984 | 26324 ft | 438 kts | 45° |
| 2026-05-06 18:35 | 52.48862 | -7.40323 | 26737 ft | 440 kts | 45° |
| 2026-05-06 18:35 | 52.50929 | -7.36705 | 27136 ft | 442 kts | 45° |
| 2026-05-06 18:35 | 52.53066 | -7.32961 | 27436 ft | 444 kts | 45° |
| 2026-05-06 18:36 | 52.55157 | -7.29301 | 27872 ft | 447 kts | 45° |
| 2026-05-06 18:36 | 52.57303 | -7.25591 | 28166 ft | 450 kts | 45° |
| 2026-05-06 18:36 | 52.59437 | -7.21813 | 28635 ft | 450 kts | 46° |
| 2026-05-06 18:36 | 52.61559 | -7.18051 | 29255 ft | 446 kts | 45° |
| 2026-05-06 18:37 | 52.63660 | -7.14331 | 29884 ft | 443 kts | 45° |
| 2026-05-06 18:37 | 52.65754 | -7.10626 | 30350 ft | 441 kts | 45° |
| 2026-05-06 18:37 | 52.67841 | -7.06931 | 30798 ft | 439 kts | 45° |
| 2026-05-06 18:37 | 52.69895 | -7.03288 | 30978 ft | 441 kts | 45° |
| 2026-05-06 18:38 | 52.73896 | -6.96207 | 30967 ft | 436 kts | 45° |
| 2026-05-06 18:38 | 52.78004 | -6.88881 | 30981 ft | 435 kts | 45° |
| 2026-05-06 18:39 | 52.82123 | -6.81520 | 30980 ft | 437 kts | 45° |
| 2026-05-06 18:40 | 52.88280 | -6.70481 | 30969 ft | 438 kts | 45° |
| 2026-05-06 18:40 | 52.92407 | -6.63053 | 30976 ft | 438 kts | 45° |
| 2026-05-06 18:41 | 52.96527 | -6.55614 | 30984 ft | 438 kts | 45° |
| 2026-05-06 18:41 | 53.00645 | -6.48158 | 30974 ft | 439 kts | 45° |
| 2026-05-06 18:42 | 53.04738 | -6.40724 | 30977 ft | 438 kts | 45° |
| 2026-05-06 18:42 | 53.08852 | -6.33230 | 30965 ft | 438 kts | 45° |
| 2026-05-06 18:43 | 53.12950 | -6.25740 | 30969 ft | 437 kts | 45° |
| 2026-05-06 18:43 | 53.17038 | -6.18248 | 30972 ft | 437 kts | 45° |
| 2026-05-06 18:44 | 53.21116 | -6.10751 | 30977 ft | 436 kts | 45° |
| 2026-05-06 18:44 | 53.25163 | -6.03287 | 30973 ft | 436 kts | 45° |
| 2026-05-06 18:45 | 53.29229 | -5.95765 | 30973 ft | 436 kts | 45° |
| 2026-05-06 18:45 | 53.33285 | -5.88240 | 30977 ft | 436 kts | 45° |
| 2026-05-06 18:46 | 53.37344 | -5.80686 | 30981 ft | 436 kts | 45° |
| 2026-05-06 18:46 | 53.41367 | -5.73175 | 30992 ft | 436 kts | 46° |
| 2026-05-06 18:47 | 53.45417 | -5.65589 | 30995 ft | 437 kts | 46° |
| 2026-05-06 18:47 | 53.49469 | -5.57979 | 30993 ft | 437 kts | 46° |
| 2026-05-06 18:48 | 53.52845 | -5.49518 | 30999 ft | 444 kts | 68° |
| 2026-05-06 18:48 | 53.53574 | -5.44452 | 30992 ft | 449 kts | 81° |
| 2026-05-06 18:48 | 53.53605 | -5.39248 | 31010 ft | 453 kts | 90° |
| 2026-05-06 18:49 | 53.53233 | -5.28666 | 30991 ft | 454 kts | 90° |
| 2026-05-06 18:49 | 53.52945 | -5.18085 | 31002 ft | 454 kts | 89° |
| 2026-05-06 18:50 | 53.52651 | -5.07436 | 30316 ft | 459 kts | 90° |
| 2026-05-06 18:50 | 53.52439 | -5.02112 | 29665 ft | 456 kts | 93° |
| 2026-05-06 18:50 | 53.52203 | -4.96839 | 29136 ft | 449 kts | 90° |
| 2026-05-06 18:50 | 53.52081 | -4.91705 | 28615 ft | 443 kts | 90° |
| 2026-05-06 18:51 | 53.51942 | -4.86558 | 28085 ft | 438 kts | 91° |
| 2026-05-06 18:51 | 53.51781 | -4.81465 | 27537 ft | 434 kts | 91° |
| 2026-05-06 18:51 | 53.51609 | -4.76415 | 26990 ft | 431 kts | 91° |
| 2026-05-06 18:51 | 53.51434 | -4.71409 | 26480 ft | 427 kts | 92° |
| 2026-05-06 18:52 | 53.51259 | -4.66459 | 25964 ft | 424 kts | 92° |
| 2026-05-06 18:52 | 53.51085 | -4.61538 | 25467 ft | 420 kts | 92° |
| 2026-05-06 18:52 | 53.50921 | -4.56718 | 24962 ft | 417 kts | 92° |
| 2026-05-06 18:52 | 53.50747 | -4.51867 | 24471 ft | 414 kts | 93° |
| 2026-05-06 18:53 | 53.50546 | -4.47064 | 23976 ft | 412 kts | 93° |
| 2026-05-06 18:53 | 53.50364 | -4.42272 | 23457 ft | 410 kts | 92° |
| 2026-05-06 18:53 | 53.50195 | -4.37502 | 22870 ft | 408 kts | 92° |
| 2026-05-06 18:53 | 53.50031 | -4.32765 | 22354 ft | 404 kts | 92° |
| 2026-05-06 18:54 | 53.49857 | -4.28085 | 21857 ft | 401 kts | 93° |
| 2026-05-06 18:54 | 53.49672 | -4.23433 | 21366 ft | 397 kts | 93° |
| 2026-05-06 18:54 | 53.49497 | -4.18818 | 20873 ft | 394 kts | 93° |
| 2026-05-06 18:54 | 53.49325 | -4.14295 | 20394 ft | 392 kts | 93° |
| 2026-05-06 18:55 | 53.49148 | -4.09745 | 19914 ft | 389 kts | 94° |
| 2026-05-06 18:55 | 53.48969 | -4.05218 | 19445 ft | 387 kts | 94° |
| 2026-05-06 18:55 | 53.48788 | -4.00728 | 18973 ft | 385 kts | 94° |
| 2026-05-06 18:55 | 53.48533 | -3.96259 | 18492 ft | 384 kts | 100° |
| 2026-05-06 18:56 | 53.47848 | -3.91937 | 17891 ft | 384 kts | 110° |
| 2026-05-06 18:56 | 53.46957 | -3.87729 | 17368 ft | 381 kts | 110° |
| 2026-05-06 18:56 | 53.46060 | -3.83564 | 16869 ft | 379 kts | 110° |
| 2026-05-06 18:56 | 53.45188 | -3.79469 | 16392 ft | 376 kts | 110° |
| 2026-05-06 18:57 | 53.44323 | -3.75348 | 15921 ft | 374 kts | 110° |
| 2026-05-06 18:57 | 53.43470 | -3.71241 | 15455 ft | 371 kts | 110° |
| 2026-05-06 18:57 | 53.42623 | -3.67161 | 15001 ft | 369 kts | 110° |
| 2026-05-06 18:57 | 53.41781 | -3.63103 | 14537 ft | 367 kts | 109° |
| 2026-05-06 18:58 | 53.41168 | -3.58962 | 14071 ft | 366 kts | 97° |
| 2026-05-06 18:58 | 53.40954 | -3.54723 | 13591 ft | 365 kts | 93° |
| 2026-05-06 18:58 | 53.40796 | -3.50488 | 13089 ft | 363 kts | 93° |
| 2026-05-06 18:58 | 53.40639 | -3.46276 | 12610 ft | 360 kts | 93° |
| 2026-05-06 18:59 | 53.40476 | -3.42165 | 12158 ft | 358 kts | 93° |
| 2026-05-06 18:59 | 53.40303 | -3.38019 | 11699 ft | 355 kts | 94° |
| 2026-05-06 18:59 | 53.40124 | -3.33911 | 11260 ft | 353 kts | 94° |
| 2026-05-06 18:59 | 53.39943 | -3.29853 | 11061 ft | 343 kts | 94° |
| 2026-05-06 19:00 | 53.39766 | -3.25924 | 10908 ft | 333 kts | 94° |
| 2026-05-06 19:00 | 53.39593 | -3.22126 | 10768 ft | 323 kts | 94° |
| 2026-05-06 19:00 | 53.39423 | -3.18429 | 10630 ft | 313 kts | 94° |
| 2026-05-06 19:00 | 53.39315 | -3.16040 | 10549 ft | 307 kts | 92° |
| 2026-05-06 19:01 | 53.39835 | -3.11491 | 10266 ft | 296 kts | 62° |
| 2026-05-06 19:01 | 53.40803 | -3.08547 | 10145 ft | 287 kts | 57° |
| 2026-05-06 19:01 | 53.41813 | -3.05703 | 10005 ft | 281 kts | 58° |
| 2026-05-06 19:01 | 53.42801 | -3.02888 | 9701 ft | 280 kts | 57° |
| 2026-05-06 19:02 | 53.43790 | -3.00096 | 9400 ft | 278 kts | 57° |
| 2026-05-06 19:02 | 53.44774 | -2.97306 | 9106 ft | 277 kts | 57° |
| 2026-05-06 19:02 | 53.45747 | -2.94529 | 8823 ft | 276 kts | 58° |
| 2026-05-06 19:02 | 53.46711 | -2.91758 | 8554 ft | 274 kts | 58° |
| 2026-05-06 19:03 | 53.47666 | -2.89005 | 8278 ft | 272 kts | 58° |
| 2026-05-06 19:03 | 53.48601 | -2.86299 | 8006 ft | 271 kts | 58° |
| 2026-05-06 19:03 | 53.49541 | -2.83572 | 7737 ft | 269 kts | 58° |
| 2026-05-06 19:03 | 53.50435 | -2.80830 | 7476 ft | 268 kts | 67° |
| 2026-05-06 19:04 | 53.50706 | -2.77759 | 7212 ft | 268 kts | 97° |
| 2026-05-06 19:04 | 53.50065 | -2.74923 | 7150 ft | 257 kts | 127° |
| 2026-05-06 19:04 | 53.48742 | -2.73039 | 6946 ft | 251 kts | 156° |
| 2026-05-06 19:04 | 53.47067 | -2.72069 | 6521 ft | 257 kts | 166° |
| 2026-05-06 19:05 | 53.45339 | -2.71285 | 6226 ft | 257 kts | 166° |
| 2026-05-06 19:05 | 53.43618 | -2.70532 | 5999 ft | 254 kts | 167° |
| 2026-05-06 19:05 | 53.41913 | -2.69798 | 5779 ft | 251 kts | 167° |
| 2026-05-06 19:05 | 53.40229 | -2.69082 | 5569 ft | 248 kts | 167° |
| 2026-05-06 19:06 | 53.38573 | -2.68585 | 5352 ft | 244 kts | 180° |
| 2026-05-06 19:06 | 53.36905 | -2.68929 | 5182 ft | 240 kts | 190° |
| 2026-05-06 19:06 | 53.35267 | -2.69403 | 5021 ft | 237 kts | 189° |
| 2026-05-06 19:06 | 53.33663 | -2.69878 | 4914 ft | 230 kts | 189° |
| 2026-05-06 19:07 | 53.32114 | -2.70351 | 4838 ft | 222 kts | 190° |
| 2026-05-06 19:07 | 53.31120 | -2.70663 | 4780 ft | 217 kts | 189° |
| 2026-05-06 19:07 | 53.29149 | -2.71294 | 4475 ft | 216 kts | 190° |
| 2026-05-06 19:07 | 53.27684 | -2.71769 | 4272 ft | 214 kts | 190° |
| 2026-05-06 19:08 | 53.26229 | -2.72238 | 4035 ft | 213 kts | 187° |
| 2026-05-06 19:08 | 53.24798 | -2.72046 | 3799 ft | 210 kts | 155° |
| 2026-05-06 19:08 | 53.23622 | -2.70651 | 3582 ft | 208 kts | 134° |
| 2026-05-06 19:08 | 53.22905 | -2.68573 | 3298 ft | 210 kts | 103° |
| 2026-05-06 19:09 | 53.22722 | -2.66170 | 3085 ft | 209 kts | 96° |
| 2026-05-06 19:09 | 53.22579 | -2.63756 | 2860 ft | 209 kts | 96° |
| 2026-05-06 19:09 | 53.22431 | -2.61364 | 2617 ft | 206 kts | 96° |
| 2026-05-06 19:09 | 53.22284 | -2.59018 | 2455 ft | 197 kts | 96° |
| 2026-05-06 19:10 | 53.22143 | -2.56783 | 2485 ft | 196 kts | 96° |
| 2026-05-06 19:10 | 53.22075 | -2.54500 | 2492 ft | 201 kts | 84° |
| 2026-05-06 19:10 | 53.22695 | -2.52488 | 2493 ft | 198 kts | 45° |
| 2026-05-06 19:10 | 53.23621 | -2.50923 | 2474 ft | 181 kts | 56° |
| 2026-05-06 19:11 | 53.24330 | -2.49315 | 2476 ft | 164 kts | 54° |
| 2026-05-06 19:11 | 53.25039 | -2.47864 | 2499 ft | 159 kts | 54° |
| 2026-05-06 19:11 | 53.25739 | -2.46433 | 2502 ft | 160 kts | 54° |
| 2026-05-06 19:11 | 53.26440 | -2.44993 | 2501 ft | 160 kts | 54° |
| 2026-05-06 19:12 | 53.27148 | -2.43563 | 2488 ft | 159 kts | 53° |
| 2026-05-06 19:12 | 53.27861 | -2.42139 | 2423 ft | 162 kts | 54° |
| 2026-05-06 19:12 | 53.28591 | -2.40632 | 1879 ft | 174 kts | 54° |
| 2026-05-06 19:12 | 53.29337 | -2.39074 | 1448 ft | 167 kts | 54° |
| 2026-05-06 19:13 | 53.30026 | -2.37644 | 1241 ft | 151 kts | 56° |
| 2026-05-06 19:13 | 53.30649 | -2.36342 | 1012 ft | 140 kts | 52° |
| 2026-05-06 19:13 | 53.31270 | -2.35107 | 840 ft | 141 kts | 55° |
| 2026-05-06 19:13 | 53.31876 | -2.33782 | 694 ft | 144 kts | 52° |
| 2026-05-06 19:14 | 53.32520 | -2.32476 | 524 ft | 148 kts | 52° |
| 2026-05-06 19:14 | 53.33155 | -2.31149 | 325 ft | 141 kts | 51° |
| 2026-05-06 19:14 | 53.33740 | -2.29941 | 236 ft | 120 kts | 50° |
| 2026-05-06 19:14 | 53.34126 | -2.29144 | 233 ft | 59 kts | 51° |
| 2026-05-06 19:15 | 53.34252 | -2.28884 | 230 ft | 38 kts | 51° |
| 2026-05-06 19:15 | 53.34462 | -2.28450 | 229 ft | 28 kts | 51° |
| 2026-05-06 19:15 | 53.34582 | -2.28201 | 231 ft | 27 kts | 51° |
| 2026-05-06 19:15 | 53.34694 | -2.27971 | 230 ft | 19 kts | 51° |
| 2026-05-06 19:16 | 53.34775 | -2.27829 | 229 ft | 17 kts | 26° |
| 2026-05-06 19:16 | 53.34870 | -2.27852 | 231 ft | 12 kts | 327° |
| 2026-05-06 19:16 | 53.34945 | -2.27897 | 232 ft | 12 kts | 17° |
| 2026-05-06 19:16 | 53.35001 | -2.27802 | 232 ft | 12 kts | 51° |
| 2026-05-06 19:17 | 53.35050 | -2.27698 | 232 ft | 11 kts | 51° |
| 2026-05-06 19:17 | 53.35099 | -2.27596 | 232 ft | 11 kts | 51° |
| 2026-05-06 19:17 | 53.35146 | -2.27498 | 232 ft | 11 kts | 51° |
| 2026-05-06 19:17 | 53.35192 | -2.27403 | 232 ft | 10 kts | 51° |
| 2026-05-06 19:18 | 53.35244 | -2.27297 | 232 ft | 13 kts | 51° |
| 2026-05-06 19:18 | 53.35308 | -2.27163 | 232 ft | 16 kts | 50° |
| 2026-05-06 19:18 | 53.35386 | -2.27004 | 232 ft | 19 kts | 51° |
| 2026-05-06 19:18 | 53.35469 | -2.26832 | 232 ft | 18 kts | 51° |
| 2026-05-06 19:19 | 53.35530 | -2.26706 | 232 ft | 13 kts | 51° |
| 2026-05-06 19:19 | 53.35608 | -2.26625 | 233 ft | 14 kts | 8° |
| 2026-05-06 19:19 | 53.35700 | -2.26645 | 237 ft | 13 kts | 349° |
| 2026-05-06 19:19 | 53.35786 | -2.26672 | 246 ft | 12 kts | 349° |
| 2026-05-06 19:20 | 53.35866 | -2.26696 | 236 ft | 12 kts | 349° |
| 2026-05-06 19:20 | 53.35928 | -2.26714 | 235 ft | 10 kts | 350° |
| 2026-05-06 19:20 | 53.35988 | -2.26741 | 235 ft | 9 kts | 338° |
| 2026-05-06 19:20 | 53.36039 | -2.26729 | 233 ft | 6 kts | 20° |
| 2026-05-06 19:21 | 53.36069 | -2.26755 | 233 ft | 5 kts | 314° |
| 2026-05-06 19:21 | 53.36085 | -2.26784 | 232 ft | 2 kts | 314° |
| 2026-05-06 19:21 | 53.36092 | -2.26795 | 232 ft | 1 kts | 315° |
| 2026-05-06 19:21 | 53.36093 | -2.26796 | 232 ft | 0 kts | 315° |